Time;durP1;ratioP1;P1;durP2;ratioP2;P2;SDS_P1;SDS_P2;PMS_P1;PMS_P2;Temp;Humidity;BMP_temperature;BMP_pressure;BME280_temperature;BME280_humidity;BME280_pressure;Samples;Min_cycle;Max_cycle;Signal;HPM_P1;HPM_P2
2022/06/07 00:01:37;;;;;;;4.22;1.05;;;18.20;96.90;;;;;;5046833;28;20395;-71
2022/06/07 00:04:03;;;;;;;3.25;1.10;;;18.20;97.10;;;;;;5065036;28;20103;-71
2022/06/07 00:06:29;;;;;;;1.45;1.00;;;18.20;97.10;;;;;;5068940;28;20167;-71
2022/06/07 00:08:55;;;;;;;3.17;1.10;;;18.10;97.10;;;;;;5067658;28;20031;-71
2022/06/07 00:11:22;;;;;;;1.52;1.05;;;18.10;97.20;;;;;;5037401;28;20040;-71
2022/06/07 00:13:47;;;;;;;1.65;0.95;;;18.10;97.20;;;;;;5070482;28;20109;-72
2022/06/07 00:16:17;;;;;;;1.95;1.00;;;18.10;97.40;;;;;;5066415;28;20098;-71
2022/06/07 00:18:43;;;;;;;1.05;0.90;;;18.10;97.40;;;;;;5070825;28;20021;-72
2022/06/07 00:21:09;;;;;;;1.55;0.80;;;18.00;97.50;;;;;;5064493;28;20024;-71
2022/06/07 00:23:35;;;;;;;3.22;1.33;;;18.00;97.60;;;;;;5066185;28;20035;-72
2022/06/07 00:26:02;;;;;;;2.97;0.90;;;18.00;97.50;;;;;;5066861;28;20087;-72
2022/06/07 00:28:28;;;;;;;1.10;1.00;;;18.00;97.70;;;;;;5069693;28;20047;-71
2022/06/07 00:30:55;;;;;;;0.98;0.90;;;18.00;97.80;;;;;;5067322;28;20044;-71
2022/06/07 00:33:22;;;;;;;1.08;1.00;;;18.00;97.90;;;;;;5065183;28;20021;-71
2022/06/07 00:35:48;;;;;;;1.45;0.90;;;18.00;97.90;;;;;;5067054;28;20031;-71
2022/06/07 00:38:14;;;;;;;1.73;1.27;;;17.90;98.00;;;;;;5061417;28;20032;-71
2022/06/07 00:40:41;;;;;;;4.43;1.10;;;17.90;98.10;;;;;;5049187;28;20094;-71
2022/06/07 00:43:07;;;;;;;2.05;0.90;;;17.90;98.30;;;;;;5062144;28;20029;-71
2022/06/07 00:45:32;;;;;;;1.40;0.98;;;17.90;98.40;;;;;;5058354;28;20123;-71
2022/06/07 00:47:58;;;;;;;1.67;0.90;;;17.80;98.40;;;;;;5062285;28;20481;-72
2022/06/07 00:50:49;;;;;;;1.23;1.00;;;17.90;98.50;;;;;;5063524;28;20032;-71
2022/06/07 00:53:25;;;;;;;2.65;1.00;;;17.80;98.60;;;;;;5049280;28;20206;-71
2022/06/07 00:55:52;;;;;;;4.63;0.88;;;17.80;98.70;;;;;;5074137;28;20036;-72
2022/06/07 00:58:19;;;;;;;1.58;1.00;;;17.80;98.70;;;;;;5070855;28;20028;-71
2022/06/07 01:00:44;;;;;;;2.00;1.00;;;17.80;99.00;;;;;;5068259;28;20047;-71
2022/06/07 01:03:11;;;;;;;1.00;0.77;;;17.70;98.90;;;;;;5072271;28;20024;-71
2022/06/07 01:05:37;;;;;;;1.00;0.90;;;17.70;98.70;;;;;;5073521;28;20115;-71
2022/06/07 01:10:49;;;;;;;0.95;0.80;;;17.70;98.50;;;;;;5069343;28;20074;-71
2022/06/07 01:13:19;;;;;;;3.67;0.85;;;17.70;98.90;;;;;;5072909;28;20760;-71
2022/06/07 01:15:46;;;;;;;0.85;0.70;;;17.60;99.00;;;;;;5068735;28;20033;-71
2022/06/07 01:18:13;;;;;;;1.13;0.90;;;17.50;99.50;;;;;;5070531;28;20048;-71
2022/06/07 01:20:39;;;;;;;2.15;0.70;;;17.40;99.50;;;;;;5073809;28;20035;-71
2022/06/07 01:23:05;;;;;;;1.17;0.80;;;17.40;99.70;;;;;;5072762;28;20028;-71
2022/06/07 01:25:31;;;;;;;2.38;1.17;;;17.30;99.90;;;;;;5073426;28;20054;-72
2022/06/07 01:27:57;;;;;;;0.80;0.80;;;17.30;99.90;;;;;;5070468;28;20033;-71
2022/06/07 01:30:23;;;;;;;2.95;1.08;;;17.20;99.90;;;;;;5064249;28;20425;-72
2022/06/07 01:32:48;;;;;;;6.60;1.00;;;17.20;99.90;;;;;;5071630;28;20033;-71
2022/06/07 01:35:14;;;;;;;0.70;0.70;;;17.20;99.90;;;;;;5070603;28;20378;-71
2022/06/07 01:37:40;;;;;;;3.17;0.82;;;17.10;99.90;;;;;;5053152;28;20442;-72
2022/06/07 01:42:51;;;;;;;1.70;0.90;;;17.10;99.90;;;;;;5068453;28;20390;-71
2022/06/07 01:45:17;;;;;;;2.00;0.80;;;17.00;99.90;;;;;;5071825;28;20040;-71
2022/06/07 01:47:42;;;;;;;1.15;0.60;;;17.00;99.90;;;;;;5059235;28;20032;-71
2022/06/07 01:50:09;;;;;;;3.50;0.93;;;16.90;99.90;;;;;;5062687;28;20028;-71
2022/06/07 01:52:36;;;;;;;3.30;1.25;;;16.90;99.90;;;;;;5066703;28;20062;-71
2022/06/07 01:55:02;;;;;;;1.17;0.80;;;16.90;99.90;;;;;;5051387;28;20087;-71
2022/06/07 01:57:29;;;;;;;0.90;0.90;;;16.80;99.90;;;;;;5064132;28;23328;-72
2022/06/07 01:59:55;;;;;;;2.30;0.98;;;16.80;99.90;;;;;;5058412;28;20071;-72
2022/06/07 02:02:24;;;;;;;5.05;1.05;;;16.80;99.90;;;;;;5059836;28;20031;-72
2022/06/07 02:04:50;;;;;;;1.15;0.70;;;16.80;99.90;;;;;;5063828;28;20603;-72
2022/06/07 02:07:18;;;;;;;2.70;0.88;;;16.80;99.90;;;;;;5065785;28;20025;-71
2022/06/07 02:09:44;;;;;;;1.17;0.88;;;16.80;99.90;;;;;;5068411;28;20082;-71
2022/06/07 02:12:10;;;;;;;1.40;0.70;;;16.70;99.90;;;;;;5054930;28;20032;-71
2022/06/07 02:14:36;;;;;;;1.55;0.70;;;16.60;99.90;;;;;;5065258;28;20025;-71
2022/06/07 02:17:02;;;;;;;1.48;0.80;;;16.60;99.90;;;;;;5063280;28;20405;-71
2022/06/07 02:19:28;;;;;;;1.33;0.75;;;16.50;99.90;;;;;;5064135;28;20032;-71
2022/06/07 02:21:53;;;;;;;1.98;0.90;;;16.40;99.90;;;;;;5057248;28;20107;-71
2022/06/07 02:24:19;;;;;;;1.17;0.77;;;16.40;99.90;;;;;;5063035;28;20363;-72
2022/06/07 02:26:59;;;;;;;3.50;0.68;;;16.30;99.90;;;;;;5058579;28;20519;-72
2022/06/07 02:29:29;;;;;;;0.60;0.60;;;16.30;99.90;;;;;;5063955;28;20071;-71
2022/06/07 02:31:59;;;;;;;1.17;0.60;;;16.30;99.90;;;;;;5065434;28;20458;-72
2022/06/07 02:34:25;;;;;;;1.52;0.90;;;16.20;99.90;;;;;;5065467;28;20025;-72
2022/06/07 02:36:55;;;;;;;1.05;0.60;;;16.20;99.90;;;;;;5063900;28;20383;-72
2022/06/07 02:39:21;;;;;;;1.30;0.77;;;16.20;99.90;;;;;;5071290;28;20035;-72
2022/06/07 02:41:48;;;;;;;2.13;0.80;;;16.20;99.90;;;;;;5071506;28;20043;-73
2022/06/07 02:44:14;;;;;;;1.67;0.77;;;16.10;99.90;;;;;;5065077;28;20103;-73
2022/06/07 02:46:40;;;;;;;1.90;0.65;;;16.10;99.90;;;;;;5069761;28;20103;-73
2022/06/07 02:49:05;;;;;;;2.15;0.70;;;16.10;99.90;;;;;;5062969;28;20025;-73
2022/06/07 02:51:31;;;;;;;5.57;1.58;;;16.10;99.90;;;;;;5046137;28;20495;-73
2022/06/07 02:53:57;;;;;;;1.33;0.93;;;16.10;99.90;;;;;;5073677;28;20385;-72
2022/06/07 02:56:23;;;;;;;0.77;0.77;;;16.10;99.90;;;;;;5070605;28;20614;-72
2022/06/07 02:58:49;;;;;;;5.90;1.63;;;16.00;99.90;;;;;;5070868;28;20432;-73
2022/06/07 03:01:14;;;;;;;0.70;0.70;;;16.00;99.90;;;;;;5070725;28;20020;-73
2022/06/07 03:03:40;;;;;;;1.30;0.60;;;16.00;99.90;;;;;;5064243;28;20032;-71
2022/06/07 03:06:06;;;;;;;1.00;0.80;;;16.00;99.90;;;;;;5071095;28;20102;-71
2022/06/07 03:08:33;;;;;;;2.35;0.80;;;16.00;99.90;;;;;;5063851;28;20024;-72
2022/06/07 03:10:58;;;;;;;2.83;0.80;;;16.00;99.90;;;;;;5065422;28;20074;-72
2022/06/07 03:13:24;;;;;;;1.48;0.77;;;16.00;99.90;;;;;;5064306;28;20025;-72
2022/06/07 03:15:52;;;;;;;1.15;0.70;;;16.00;99.90;;;;;;5071217;28;20028;-73
2022/06/07 03:18:18;;;;;;;3.22;1.08;;;16.00;99.90;;;;;;5068502;28;20465;-72
2022/06/07 03:20:46;;;;;;;3.30;0.95;;;15.90;99.90;;;;;;5064311;28;20032;-72
2022/06/07 03:23:12;;;;;;;1.05;0.60;;;15.90;99.90;;;;;;5060922;28;20474;-72
2022/06/07 03:25:38;;;;;;;0.82;0.80;;;15.90;99.90;;;;;;5059346;28;20105;-72
2022/06/07 03:28:03;;;;;;;2.08;0.75;;;15.90;99.90;;;;;;5063296;28;20104;-71
2022/06/07 03:30:29;;;;;;;1.40;0.68;;;15.90;99.90;;;;;;5042503;28;20040;-71
2022/06/07 03:32:56;;;;;;;1.42;0.80;;;15.90;99.90;;;;;;5062296;28;20505;-71
2022/06/07 03:35:22;;;;;;;1.85;0.57;;;15.90;99.90;;;;;;5058904;28;20064;-72
2022/06/07 03:37:48;;;;;;;0.73;0.70;;;15.90;99.90;;;;;;5062131;28;20029;-72
2022/06/07 03:40:42;;;;;;;0.70;0.63;;;15.90;99.90;;;;;;5060966;28;20098;-72
2022/06/07 03:43:00;;;;;;;2.08;0.47;;;;;;;;;;5065858;28;20032;-71
2022/06/07 03:45:25;;;;;;;1.52;0.60;;;16.10;99.90;;;;;;5062149;28;20032;-72
2022/06/07 03:47:51;;;;;;;0.93;0.50;;;16.10;99.90;;;;;;5068612;28;20020;-72
2022/06/07 03:50:17;;;;;;;0.75;0.70;;;16.10;99.90;;;;;;5058967;28;20115;-72
2022/06/07 03:52:42;;;;;;;4.43;0.85;;;16.10;99.90;;;;;;5070504;28;20086;-72
2022/06/07 03:55:08;;;;;;;1.42;0.63;;;16.10;99.90;;;;;;5070477;28;20151;-72
2022/06/07 03:57:34;;;;;;;0.63;0.60;;;16.10;99.90;;;;;;5070127;28;20029;-72
2022/06/07 03:59:59;;;;;;;1.25;0.60;;;16.10;99.90;;;;;;5065188;28;20454;-72
2022/06/07 04:02:26;;;;;;;0.60;0.60;;;16.10;99.90;;;;;;5069622;28;20170;-72
2022/06/07 04:04:51;;;;;;;0.85;0.65;;;16.10;99.90;;;;;;5070921;28;20111;-72
2022/06/07 04:10:01;;;;;;;1.13;0.60;;;16.10;99.90;;;;;;5063132;28;20091;-72
2022/06/07 04:12:27;;;;;;;3.78;0.77;;;16.10;99.90;;;;;;5062940;28;20466;-72
2022/06/07 04:14:53;;;;;;;1.13;0.57;;;16.20;99.90;;;;;;5063953;28;20032;-72
2022/06/07 04:17:18;;;;;;;1.05;0.45;;;16.20;99.90;;;;;;5063708;28;20028;-71
2022/06/07 04:19:44;;;;;;;2.15;0.60;;;16.20;99.90;;;;;;5070699;28;20052;-71
2022/06/07 04:22:11;;;;;;;1.30;0.57;;;16.20;99.90;;;;;;5068228;28;20039;-72
2022/06/07 04:24:37;;;;;;;0.80;0.57;;;16.20;99.90;;;;;;5062533;28;20481;-72
2022/06/07 04:27:03;;;;;;;2.40;0.50;;;16.20;99.90;;;;;;5066053;28;20021;-72
2022/06/07 04:29:28;;;;;;;0.98;0.65;;;16.20;99.90;;;;;;5073706;28;20718;-72
2022/06/07 04:31:54;;;;;;;0.73;0.45;;;16.20;99.90;;;;;;5074368;28;20035;-72
2022/06/07 04:34:20;;;;;;;0.47;0.45;;;16.20;99.90;;;;;;5070651;28;20380;-72
2022/06/07 04:36:46;;;;;;;3.70;0.80;;;16.20;99.90;;;;;;5070768;28;20032;-71
2022/06/07 04:39:12;;;;;;;0.50;0.50;;;16.20;99.90;;;;;;5073779;28;20024;-72
2022/06/07 04:41:38;;;;;;;2.15;0.50;;;16.20;99.90;;;;;;5069368;28;20074;-72
2022/06/07 04:44:05;;;;;;;1.48;0.70;;;16.20;99.90;;;;;;5066222;28;20020;-72
2022/06/07 04:46:30;;;;;;;4.93;1.13;;;16.20;99.90;;;;;;5064735;28;20136;-71
2022/06/07 04:48:56;;;;;;;1.33;0.52;;;16.20;99.90;;;;;;5053218;28;20132;-72
2022/06/07 04:51:27;;;;;;;1.55;0.60;;;16.30;99.90;;;;;;5063064;28;20029;-72
2022/06/07 04:53:54;;;;;;;0.90;0.60;;;16.30;99.90;;;;;;5063426;28;20056;-71
2022/06/07 04:56:23;;;;;;;1.42;0.68;;;16.30;99.90;;;;;;5059696;28;20029;-72
2022/06/07 04:58:49;;;;;;;1.88;0.60;;;16.30;99.90;;;;;;5064951;28;20029;-72
2022/06/07 05:01:21;;;;;;;2.28;0.52;;;16.40;99.90;;;;;;5065359;28;20454;-72
2022/06/07 05:03:47;;;;;;;3.13;0.65;;;16.40;99.90;;;;;;5060224;28;20033;-72
2022/06/07 05:06:22;;;;;;;1.05;0.60;;;16.40;99.90;;;;;;5066819;28;20039;-72
2022/06/07 05:08:48;;;;;;;3.67;0.82;;;16.40;99.90;;;;;;5068762;28;20033;-73
2022/06/07 05:11:14;;;;;;;1.55;0.47;;;16.40;99.90;;;;;;5062032;28;20102;-71
2022/06/07 05:13:40;;;;;;;2.10;0.80;;;16.40;99.90;;;;;;5058609;28;20111;-72
2022/06/07 05:16:06;;;;;;;0.70;0.60;;;16.40;99.90;;;;;;5070174;28;20033;-73
2022/06/07 05:18:32;;;;;;;1.55;0.77;;;16.50;99.90;;;;;;5070224;28;20067;-74
2022/06/07 05:20:58;;;;;;;1.77;0.60;;;16.50;99.90;;;;;;5071784;28;21911;-75
2022/06/07 05:23:24;;;;;;;1.58;0.50;;;16.50;99.90;;;;;;5071218;28;20027;-77
2022/06/07 05:26:05;;;;;;;2.38;1.00;;;16.50;99.90;;;;;;5071793;28;20029;-75
2022/06/07 05:28:32;;;;;;;0.85;0.60;;;16.50;99.90;;;;;;5069658;28;20048;-76
2022/06/07 05:30:57;;;;;;;2.50;0.65;;;16.40;99.90;;;;;;5070688;28;20028;-76
2022/06/07 05:33:23;;;;;;;2.03;0.80;;;16.40;99.90;;;;;;5071817;28;20028;-75
2022/06/07 05:35:49;;;;;;;0.85;0.60;;;16.50;99.90;;;;;;5071970;28;20102;-75
2022/06/07 05:38:15;;;;;;;3.35;0.75;;;16.40;99.90;;;;;;5071353;28;20064;-82
2022/06/07 05:40:41;;;;;;;1.23;0.93;;;16.50;99.90;;;;;;5069155;28;20044;-83
2022/06/07 05:43:06;;;;;;;3.33;1.52;;;16.50;99.90;;;;;;5067855;28;20359;-87
2022/06/07 05:45:32;;;;;;;0.65;0.65;;;16.60;99.90;;;;;;5078739;28;20596;-85
2022/06/07 05:47:58;;;;;;;5.10;1.20;;;16.70;99.90;;;;;;5072519;28;20150;-84
2022/06/07 05:50:25;;;;;;;0.93;0.70;;;16.70;99.90;;;;;;5067451;28;20107;-78
2022/06/07 05:52:51;;;;;;;2.55;0.98;;;16.90;99.90;;;;;;5066648;28;20028;-72
2022/06/07 05:55:17;;;;;;;2.28;0.80;;;17.00;99.90;;;;;;5072146;28;20052;-72
2022/06/07 05:57:49;;;;;;;0.73;0.73;;;17.20;99.90;;;;;;5073387;28;20487;-72
2022/06/07 06:00:16;;;;;;;0.93;0.82;;;17.30;99.90;;;;;;5063608;28;20028;-72
2022/06/07 06:02:41;;;;;;;3.03;0.90;;;17.50;99.90;;;;;;5070790;28;20039;-72
2022/06/07 06:05:08;;;;;;;1.77;0.80;;;17.70;99.90;;;;;;5065842;28;20017;-71
2022/06/07 06:07:33;;;;;;;3.65;0.85;;;17.80;99.90;;;;;;5071216;28;20725;-73
2022/06/07 06:12:43;;;;;;;4.10;1.13;;;18.00;99.90;;;;;;5059768;28;20100;-71
2022/06/07 06:15:09;;;;;;;1.40;0.63;;;18.10;99.90;;;;;;5061582;28;20420;-73
2022/06/07 06:17:35;;;;;;;2.88;0.85;;;18.20;99.90;;;;;;5057423;28;20055;-72
2022/06/07 06:20:01;;;;;;;1.92;0.80;;;18.20;99.90;;;;;;5063999;28;20052;-71
2022/06/07 06:22:26;;;;;;;2.17;1.08;;;18.30;99.90;;;;;;5056008;28;20086;-71
2022/06/07 06:24:54;;;;;;;2.55;0.75;;;18.30;99.90;;;;;;5065853;28;20024;-72
2022/06/07 06:27:21;;;;;;;1.27;0.80;;;18.40;99.90;;;;;;5034412;28;20040;-70
2022/06/07 06:29:47;;;;;;;2.40;1.00;;;18.50;99.90;;;;;;5061410;28;20132;-71
2022/06/07 06:32:12;;;;;;;2.47;0.90;;;18.70;99.90;;;;;;5063912;28;20099;-70
2022/06/07 06:34:38;;;;;;;3.47;0.80;;;18.80;99.90;;;;;;5064407;28;20037;-70
2022/06/07 06:37:04;;;;;;;2.53;0.93;;;18.80;99.90;;;;;;5065107;28;20083;-70
2022/06/07 06:39:30;;;;;;;2.83;0.80;;;18.80;99.90;;;;;;5071214;28;20027;-71
2022/06/07 06:41:56;;;;;;;2.20;0.70;;;18.80;99.90;;;;;;5070595;28;20036;-70
2022/06/07 06:44:22;;;;;;;3.25;0.82;;;18.80;99.90;;;;;;5064993;28;20056;-71
2022/06/07 06:46:48;;;;;;;2.10;0.82;;;19.00;99.90;;;;;;5060272;28;20064;-72
2022/06/07 06:49:14;;;;;;;2.45;1.02;;;19.20;99.90;;;;;;5067237;28;20063;-72
2022/06/07 06:51:41;;;;;;;2.70;1.00;;;19.40;99.90;;;;;;5063631;28;20078;-72
2022/06/07 06:54:09;;;;;;;2.03;1.25;;;19.50;99.70;;;;;;5068078;28;20032;-72
2022/06/07 06:56:35;;;;;;;2.42;0.77;;;19.50;99.60;;;;;;5068502;28;20068;-72
2022/06/07 06:59:02;;;;;;;3.10;0.98;;;19.50;99.80;;;;;;5061126;28;20111;-75
2022/06/07 07:01:31;;;;;;;1.27;0.90;;;19.50;99.20;;;;;;5063056;28;20024;-73
2022/06/07 07:04:02;;;;;;;2.92;0.95;;;19.50;99.10;;;;;;5062209;28;20077;-72
2022/06/07 07:06:29;;;;;;;0.75;0.68;;;19.50;99.00;;;;;;5059297;28;20136;-72
2022/06/07 07:08:56;;;;;;;2.40;0.95;;;19.50;98.90;;;;;;5060379;28;20518;-72
2022/06/07 07:11:31;;;;;;;1.17;0.88;;;19.50;99.10;;;;;;5038868;28;20024;-72
2022/06/07 07:13:58;;;;;;;1.20;0.65;;;19.60;98.30;;;;;;5070101;28;20032;-72
2022/06/07 07:16:27;;;;;;;3.35;0.80;;;19.60;98.10;;;;;;5064151;28;20028;-72
2022/06/07 07:18:53;;;;;;;2.80;0.70;;;19.60;98.40;;;;;;5052169;28;20025;-72
2022/06/07 07:21:26;;;;;;;1.73;0.80;;;19.60;97.90;;;;;;5070227;28;20439;-72
2022/06/07 07:23:52;;;;;;;1.02;0.60;;;19.60;97.60;;;;;;5065311;28;20031;-72
2022/06/07 07:26:23;;;;;;;3.55;0.75;;;19.50;97.70;;;;;;5066378;28;20366;-72
2022/06/07 07:28:50;;;;;;;1.92;0.70;;;19.40;97.90;;;;;;5070807;28;20079;-72
2022/06/07 07:31:18;;;;;;;2.70;0.80;;;19.40;98.20;;;;;;5070283;28;20035;-72
2022/06/07 07:33:45;;;;;;;1.73;0.77;;;19.50;98.00;;;;;;5066407;28;20021;-73
2022/06/07 07:36:11;;;;;;;2.33;0.77;;;19.50;97.60;;;;;;5067546;28;20039;-72
2022/06/07 07:38:38;;;;;;;1.05;0.50;;;19.70;97.50;;;;;;5067070;28;20038;-72
2022/06/07 07:41:12;;;;;;;2.20;0.50;;;20.00;97.30;;;;;;5070861;28;20033;-72
2022/06/07 07:43:37;;;;;;;2.58;0.90;;;20.10;96.90;;;;;;5064166;28;20041;-72
2022/06/07 07:46:03;;;;;;;2.17;0.73;;;20.20;96.50;;;;;;5067741;28;20047;-72
2022/06/07 07:48:28;;;;;;;2.80;0.77;;;20.40;96.70;;;;;;5068219;28;20027;-72
2022/06/07 07:50:54;;;;;;;2.05;0.73;;;20.70;96.80;;;;;;5065369;28;20032;-73
2022/06/07 07:53:20;;;;;;;3.72;0.80;;;21.00;95.80;;;;;;5069914;28;20039;-73
2022/06/07 07:55:50;;;;;;;1.42;0.70;;;21.20;94.50;;;;;;5069653;28;20525;-72
2022/06/07 07:58:16;;;;;;;;;;;21.30;94.10;;;;;;5064001;28;20033;-72
2022/06/07 08:00:47;;;;;;;2.05;0.50;;;21.30;94.20;;;;;;5056777;28;19904;-72
2022/06/07 08:03:14;;;;;;;5.50;1.10;;;21.30;93.70;;;;;;5058716;28;20021;-72
2022/06/07 08:06:17;;;;;;;;;;;;;;;;;;;;;
2022/06/07 08:08:32;;;;;;;2.25;0.80;;;21.20;93.10;;;;;;5057136;28;20032;-72
2022/06/07 08:10:58;;;;;;;1.67;0.70;;;21.10;93.40;;;;;;5071516;28;20025;-72
2022/06/07 08:13:24;;;;;;;2.72;0.80;;;21.00;93.20;;;;;;5070956;28;20035;-72
2022/06/07 08:15:49;;;;;;;1.88;0.65;;;21.10;92.90;;;;;;5071563;28;20040;-72
2022/06/07 08:18:15;;;;;;;1.30;0.65;;;21.00;92.40;;;;;;5071752;28;20021;-72
2022/06/07 08:20:41;;;;;;;1.65;0.70;;;21.00;92.00;;;;;;5070869;28;20027;-72
2022/06/07 08:23:08;;;;;;;2.40;0.70;;;21.00;92.10;;;;;;5058908;28;20099;-72
2022/06/07 08:25:34;;;;;;;1.70;0.60;;;21.00;91.80;;;;;;5051827;28;20075;-72
2022/06/07 08:28:02;;;;;;;2.55;0.77;;;21.10;91.90;;;;;;5065557;28;20033;-72
2022/06/07 08:30:28;;;;;;;2.13;0.70;;;21.30;91.50;;;;;;5070544;28;20032;-72
2022/06/07 08:32:53;;;;;;;2.25;1.00;;;21.30;91.20;;;;;;5058194;28;20040;-73
2022/06/07 08:38:04;;;;;;;1.45;0.50;;;21.30;90.90;;;;;;5069222;28;20093;-73
2022/06/07 08:40:33;;;;;;;1.45;0.40;;;21.20;91.20;;;;;;5033909;28;20119;-73
2022/06/07 08:43:05;;;;;;;1.60;0.50;;;21.30;90.80;;;;;;5071018;28;20033;-73
2022/06/07 08:45:35;;;;;;;2.63;0.50;;;21.50;90.20;;;;;;5070546;28;20043;-71
2022/06/07 08:48:06;;;;;;;1.88;0.70;;;21.70;89.90;;;;;;5071129;28;20048;-70
2022/06/07 08:50:43;;;;;;;1.67;0.70;;;21.80;90.10;;;;;;5070190;28;20025;-70
2022/06/07 08:53:11;;;;;;;1.55;0.65;;;21.70;89.90;;;;;;5058408;28;20016;-72
2022/06/07 08:55:45;;;;;;;3.67;0.63;;;21.60;90.10;;;;;;5066708;28;20045;-71
2022/06/07 08:58:18;;;;;;;2.47;0.70;;;21.60;88.70;;;;;;5054381;28;20363;-72
2022/06/07 09:00:58;;;;;;;3.00;0.65;;;21.60;89.70;;;;;;5053162;28;20032;-72
2022/06/07 09:03:45;;;;;;;2.20;0.95;;;21.60;89.40;;;;;;5070765;28;20028;-71
2022/06/07 09:06:21;;;;;;;0.88;0.45;;;21.50;89.50;;;;;;5070749;28;20064;-71
2022/06/07 09:08:53;;;;;;;1.75;0.60;;;21.50;90.20;;;;;;5067730;28;20021;-72
2022/06/07 09:14:29;;;;;;;2.55;0.75;;;21.70;89.70;;;;;;5074657;28;20039;-72
2022/06/07 09:16:56;;;;;;;3.97;0.52;;;22.10;87.60;;;;;;5056172;28;20043;-71
2022/06/07 09:19:25;;;;;;;4.05;0.50;;;22.20;87.30;;;;;;5073824;28;20394;-71
2022/06/07 09:21:53;;;;;;;1.02;0.70;;;22.30;87.30;;;;;;5073683;28;20024;-71
2022/06/07 09:24:51;;;;;;;1.73;0.63;;;22.50;86.50;;;;;;5070504;28;20082;-72
2022/06/07 09:27:23;;;;;;;3.28;0.90;;;22.60;86.40;;;;;;5023495;28;20405;-72
2022/06/07 09:29:55;;;;;;;3.00;0.68;;;22.60;85.50;;;;;;5077124;28;20048;-71
2022/06/07 09:32:24;;;;;;;0.85;0.50;;;22.60;85.60;;;;;;5080752;28;20064;-71
2022/06/07 09:35:00;;;;;;;1.48;0.60;;;22.70;84.90;;;;;;5093901;28;20081;-72
2022/06/07 09:37:49;;;;;;;2.92;0.75;;;22.70;84.50;;;;;;5093369;28;20035;-71
2022/06/07 09:40:20;;;;;;;1.27;0.50;;;22.50;84.10;;;;;;5094476;28;20020;-71
2022/06/07 09:43:14;;;;;;;1.27;0.50;;;22.30;84.10;;;;;;5092095;28;20081;-71
2022/06/07 09:45:58;;;;;;;0.98;0.65;;;22.20;83.90;;;;;;5092639;28;20044;-72
2022/06/07 09:48:32;;;;;;;1.02;0.50;;;22.10;85.70;;;;;;5094048;28;20021;-71
2022/06/07 09:51:06;;;;;;;0.95;0.60;;;22.00;83.50;;;;;;5094048;28;20047;-71
2022/06/07 09:53:40;;;;;;;2.65;0.90;;;21.90;84.70;;;;;;5088636;28;20099;-72
2022/06/07 09:56:40;;;;;;;0.65;0.60;;;22.00;86.10;;;;;;5093514;28;20039;-71
2022/06/07 09:59:49;;;;;;;5.28;1.25;;;22.00;84.00;;;;;;5082438;28;20050;-71
2022/06/07 10:02:37;;;;;;;3.03;1.13;;;22.30;87.00;;;;;;5094108;28;20059;-71
2022/06/07 10:05:40;;;;;;;4.45;1.25;;;22.70;88.20;;;;;;5093770;28;20031;-71
2022/06/07 10:08:20;;;;;;;4.10;1.23;;;22.90;86.90;;;;;;5082879;28;20408;-73
2022/06/07 10:10:58;;;;;;;2.13;0.80;;;22.90;87.40;;;;;;5092992;28;20239;-72
2022/06/07 10:13:53;;;;;;;3.97;0.80;;;22.70;86.30;;;;;;5093404;28;20473;-71
2022/06/07 10:16:42;;;;;;;3.67;0.68;;;22.50;87.90;;;;;;5085868;28;20032;-76
2022/06/07 10:19:34;;;;;;;3.65;0.70;;;22.40;87.10;;;;;;5079052;28;20020;-76
2022/06/07 10:22:26;;;;;;;3.35;1.13;;;22.40;83.90;;;;;;5085651;28;20020;-76
2022/06/07 10:25:14;;;;;;;2.88;1.00;;;22.50;85.70;;;;;;5085262;28;20035;-77
2022/06/07 10:27:47;;;;;;;2.15;1.10;;;22.70;86.30;;;;;;5081371;28;20040;-77
2022/06/07 10:30:15;;;;;;;1.70;0.93;;;22.90;86.20;;;;;;5062782;28;20049;-77
2022/06/07 10:33:00;;;;;;;2.17;0.90;;;23.10;84.40;;;;;;5075288;28;20032;-76
2022/06/07 10:35:46;;;;;;;1.35;0.85;;;23.20;84.10;;;;;;5073368;28;20478;-76
2022/06/07 10:38:21;;;;;;;1.80;0.90;;;23.30;84.00;;;;;;5074974;28;20062;-76
2022/06/07 10:41:01;;;;;;;2.00;1.02;;;23.10;85.30;;;;;;5074532;28;20128;-76
2022/06/07 10:43:42;;;;;;;0.80;0.80;;;23.00;86.20;;;;;;5077927;28;20060;-76
2022/06/07 10:46:12;;;;;;;1.95;0.90;;;22.90;86.80;;;;;;5076179;28;20044;-76
2022/06/07 10:49:12;;;;;;;2.92;1.10;;;22.80;84.60;;;;;;5075648;28;20039;-76
2022/06/07 10:54:56;;;;;;;2.70;0.68;;;22.80;81.00;;;;;;5082986;28;20040;-78
2022/06/07 10:57:33;;;;;;;2.67;0.65;;;22.70;81.30;;;;;;5074375;28;20021;-78
2022/06/07 11:00:10;;;;;;;0.80;0.50;;;22.70;79.80;;;;;;5079709;28;20025;-79
2022/06/07 11:02:45;;;;;;;1.95;0.50;;;22.60;79.80;;;;;;5089759;28;20028;-78
2022/06/07 11:11:11;;;;;;;5.07;1.00;;;22.30;82.80;;;;;;5071471;28;20039;-78
2022/06/07 11:13:49;;;;;;;2.00;0.80;;;22.30;83.40;;;;;;5058802;28;20036;-78
2022/06/07 11:16:29;;;;;;;2.22;0.82;;;22.40;83.60;;;;;;5053082;28;20029;-77
2022/06/07 11:18:59;;;;;;;2.83;1.02;;;22.70;83.40;;;;;;5068140;28;20021;-78
2022/06/07 11:21:35;;;;;;;3.28;0.73;;;23.00;82.80;;;;;;5064617;28;20025;-78
2022/06/07 11:24:27;;;;;;;2.10;0.65;;;23.20;83.30;;;;;;5066109;28;20035;-78
2022/06/07 11:26:52;;;;;;;1.58;0.60;;;23.30;79.70;;;;;;5064065;28;20048;-78
2022/06/07 11:29:21;;;;;;;1.30;0.47;;;23.30;79.10;;;;;;5052164;28;20390;-77
2022/06/07 11:31:48;;;;;;;0.85;0.60;;;23.40;76.90;;;;;;5066655;28;20044;-77
2022/06/07 11:34:36;;;;;;;2.08;0.85;;;23.40;76.20;;;;;;5071882;28;20035;-77
2022/06/07 11:37:08;;;;;;;0.73;0.50;;;23.60;76.60;;;;;;5070618;28;20470;-77
2022/06/07 11:39:39;;;;;;;1.58;0.60;;;23.70;77.60;;;;;;5070913;28;20024;-77
2022/06/07 11:42:13;;;;;;;1.25;0.60;;;23.90;76.20;;;;;;5058676;28;20021;-77
2022/06/07 11:45:02;;;;;;;2.58;0.60;;;24.30;75.50;;;;;;5070554;28;20033;-78
2022/06/07 11:47:55;;;;;;;1.50;0.70;;;24.80;72.50;;;;;;5055646;28;20050;-77
2022/06/07 11:50:31;;;;;;;1.48;0.60;;;24.70;72.30;;;;;;5068370;28;20481;-77
2022/06/07 11:53:31;;;;;;;1.02;0.63;;;24.40;73.20;;;;;;5070472;28;20489;-77
2022/06/07 11:56:01;;;;;;;3.42;0.82;;;24.10;73.90;;;;;;5065338;28;20028;-78
2022/06/07 11:58:45;;;;;;;;;;;23.80;74.40;;;;;;5071927;28;20044;-78
2022/06/07 12:01:45;;;;;;;7.35;1.27;;;23.50;75.60;;;;;;5071757;28;19915;-78
2022/06/07 12:04:34;;;;;;;1.65;0.52;;;23.30;76.00;;;;;;5017898;28;20037;-78
2022/06/07 12:07:15;;;;;;;2.45;0.60;;;23.30;75.60;;;;;;5058182;28;20021;-77
2022/06/07 12:09:51;;;;;;;6.60;0.70;;;23.10;76.70;;;;;;5064664;28;20021;-76
2022/06/07 12:12:22;;;;;;;0.88;0.77;;;23.10;76.70;;;;;;5064380;28;20040;-77
2022/06/07 12:14:53;;;;;;;1.92;0.80;;;23.10;77.00;;;;;;5067703;28;20023;-76
2022/06/07 12:17:29;;;;;;;0.80;0.60;;;23.00;77.30;;;;;;5070812;28;20032;-77
2022/06/07 12:19:54;;;;;;;3.22;0.82;;;22.90;78.20;;;;;;5069690;28;20809;-76
2022/06/07 12:22:23;;;;;;;0.52;0.50;;;22.90;78.20;;;;;;5052627;28;20025;-78
2022/06/07 12:24:56;;;;;;;0.82;0.63;;;22.90;78.10;;;;;;5069057;28;20020;-76
2022/06/07 12:27:27;;;;;;;1.80;0.63;;;23.00;78.30;;;;;;5066092;28;20389;-77
2022/06/07 12:29:55;;;;;;;0.88;0.65;;;23.10;78.30;;;;;;5069010;28;20048;-76
2022/06/07 12:32:33;;;;;;;4.00;0.70;;;23.40;78.70;;;;;;5070678;28;20025;-77
2022/06/07 12:35:13;;;;;;;2.08;0.52;;;23.70;78.50;;;;;;5070394;28;20037;-76
2022/06/07 12:37:39;;;;;;;2.03;0.77;;;24.00;77.70;;;;;;5061677;28;20086;-76
2022/06/07 12:40:31;;;;;;;2.90;1.00;;;24.50;76.10;;;;;;5070572;28;20114;-77
2022/06/07 12:42:57;;;;;;;0.82;0.70;;;24.70;76.00;;;;;;5069904;28;20512;-77
2022/06/07 12:45:34;;;;;;;2.33;0.65;;;24.70;75.60;;;;;;5070346;28;20024;-77
2022/06/07 12:48:14;;;;;;;2.80;0.93;;;24.70;75.60;;;;;;5073248;28;20115;-77
2022/06/07 12:50:42;;;;;;;3.05;0.90;;;24.80;75.30;;;;;;5073649;28;20090;-77
2022/06/07 12:53:19;;;;;;;1.33;0.70;;;24.60;74.60;;;;;;5073899;28;20028;-77
2022/06/07 12:55:56;;;;;;;2.47;0.60;;;24.40;74.50;;;;;;5067510;28;20052;-78
2022/06/07 12:58:24;;;;;;;1.27;0.70;;;24.30;73.70;;;;;;5073974;28;20051;-78
2022/06/07 13:00:51;;;;;;;2.40;0.75;;;24.00;74.20;;;;;;5073105;28;20028;-78
2022/06/07 13:03:34;;;;;;;0.80;0.60;;;23.90;75.30;;;;;;5070667;28;20264;-78
2022/06/07 13:06:04;;;;;;;1.63;0.47;;;23.70;75.30;;;;;;5074113;28;20036;-77
2022/06/07 13:08:35;;;;;;;;;;;23.70;75.40;;;;;;5074538;28;20024;-77
2022/06/07 13:11:03;;;;;;;2.25;0.73;;;23.60;75.40;;;;;;5073985;28;19904;-77
2022/06/07 13:13:38;;;;;;;3.47;0.90;;;23.70;75.90;;;;;;5074403;28;20155;-77
2022/06/07 13:16:09;;;;;;;3.30;0.82;;;23.80;76.10;;;;;;5074143;28;20029;-78
2022/06/07 13:18:42;;;;;;;1.80;0.60;;;23.90;77.00;;;;;;5074364;28;20166;-78
2022/06/07 13:21:16;;;;;;;2.78;0.93;;;24.00;76.70;;;;;;5073867;28;20028;-77
2022/06/07 13:23:44;;;;;;;3.10;0.80;;;24.20;75.10;;;;;;5073461;28;20032;-78
2022/06/07 13:26:22;;;;;;;2.75;0.70;;;24.40;75.00;;;;;;5073830;28;20032;-77
2022/06/07 13:29:13;;;;;;;1.33;0.85;;;24.50;76.20;;;;;;5073390;28;20080;-78
2022/06/07 13:31:48;;;;;;;1.00;0.90;;;24.70;74.70;;;;;;5072893;28;20121;-78